Time;durP1;ratioP1;P1;durP2;ratioP2;P2;SDS_P1;SDS_P2;PMS_P1;PMS_P2;Temp;Humidity;BMP_temperature;BMP_pressure;BME280_temperature;BME280_humidity;BME280_pressure;Samples;Min_cycle;Max_cycle;Signal;HPM_P1;HPM_P2
2021/05/26 00:00:09;;;;;;;14.10;6.53;;;;;8.90;101192.00;;;;5087333;28;20030;-67
2021/05/26 00:02:36;;;;;;;18.80;6.30;;;;;8.80;101210.00;;;;5086494;28;20027;-70
2021/05/26 00:05:04;;;;;;;13.43;6.95;;;;;8.80;101204.00;;;;5087197;28;20027;-68
2021/05/26 00:07:31;;;;;;;22.75;7.97;;;;;8.80;101197.00;;;;5089542;28;20121;-70
2021/05/26 00:09:57;;;;;;;12.73;8.15;;;;;8.80;101189.00;;;;5085230;28;20028;-70
2021/05/26 00:12:24;;;;;;;20.23;8.85;;;;;8.80;101192.00;;;;5085571;28;20115;-66
2021/05/26 00:14:50;;;;;;;20.83;8.07;;;;;8.80;101192.00;;;;5087775;28;20186;-68
2021/05/26 00:17:17;;;;;;;14.63;8.18;;;;;8.70;101197.00;;;;5088055;28;20016;-66
2021/05/26 00:19:44;;;;;;;12.25;7.97;;;;;8.60;101204.00;;;;5087636;28;20024;-68
2021/05/26 00:22:11;;;;;;;18.08;9.02;;;;;8.60;101212.00;;;;5087654;28;20020;-69
2021/05/26 00:24:38;;;;;;;14.57;9.23;;;;;8.60;101209.00;;;;5087200;28;20108;-70
2021/05/26 00:27:05;;;;;;;16.00;10.10;;;;;8.60;101213.00;;;;5087649;28;20058;-69
2021/05/26 00:29:32;;;;;;;22.27;10.20;;;;;8.60;101210.00;;;;5087740;28;20035;-69
2021/05/26 00:31:58;;;;;;;16.92;11.95;;;;;8.60;101222.00;;;;5087366;28;20024;-70
2021/05/26 00:34:25;;;;;;;24.15;16.48;;;;;8.60;101219.00;;;;5087194;28;20047;-66
2021/05/26 00:36:51;;;;;;;20.67;10.77;;;;;8.60;101213.00;;;;5087308;28;20024;-70
2021/05/26 00:39:18;;;;;;;16.83;9.80;;;;;8.50;101234.00;;;;5087625;28;20102;-67
2021/05/26 00:41:44;;;;;;;23.55;13.38;;;;;8.50;101219.00;;;;5086987;28;20559;-68
2021/05/26 00:44:15;;;;;;;59.92;32.03;;;;;8.70;101220.00;;;;5087948;28;20036;-70
2021/05/26 00:46:43;;;;;;;53.55;25.60;;;;;8.70;101219.00;;;;5087337;28;20024;-68
2021/05/26 00:49:10;;;;;;;30.15;16.20;;;;;8.70;101215.00;;;;5087183;28;20031;-70
2021/05/26 00:51:37;;;;;;;32.95;19.55;;;;;8.60;101210.00;;;;5067899;28;20092;-70
2021/05/26 00:54:05;;;;;;;29.40;19.13;;;;;8.50;101196.00;;;;5086200;28;20048;-68
2021/05/26 00:56:35;;;;;;;39.55;20.23;;;;;8.40;101170.00;;;;5086753;28;20491;-69
2021/05/26 00:59:03;;;;;;;22.45;17.30;;;;;8.30;101192.00;;;;5086654;28;20542;-69
2021/05/26 01:01:30;;;;;;;24.38;15.55;;;;;8.40;101188.00;;;;5086026;28;20030;-68
2021/05/26 01:03:57;;;;;;;26.90;14.27;;;;;8.40;101187.00;;;;5084765;28;20310;-70
2021/05/26 01:06:24;;;;;;;16.98;12.20;;;;;8.30;101175.00;;;;5085367;28;20020;-71
2021/05/26 01:08:51;;;;;;;21.92;12.45;;;;;8.30;101190.00;;;;5084095;28;20143;-68
2021/05/26 01:11:18;;;;;;;18.73;11.15;;;;;8.30;101196.00;;;;5086993;28;20480;-70
2021/05/26 01:13:45;;;;;;;20.73;10.88;;;;;8.30;101199.00;;;;5086410;28;20446;-69
2021/05/26 01:16:12;;;;;;;21.60;9.95;;;;;8.20;101190.00;;;;5085793;28;20056;-69
2021/05/26 01:18:38;;;;;;;16.27;9.50;;;;;8.20;101207.00;;;;5085942;28;20028;-68
2021/05/26 01:21:12;;;;;;;11.38;8.95;;;;;8.30;101209.00;;;;5086400;28;20030;-69
2021/05/26 01:23:42;;;;;;;20.77;9.95;;;;;8.20;101205.00;;;;5086430;28;20483;-69
2021/05/26 01:26:09;;;;;;;12.50;8.95;;;;;8.20;101219.00;;;;5086205;28;20391;-67
2021/05/26 01:28:37;;;;;;;16.88;8.45;;;;;8.10;101200.00;;;;5086186;28;20023;-67
2021/05/26 01:31:03;;;;;;;13.07;9.68;;;;;8.10;101216.00;;;;5085788;28;20107;-70
2021/05/26 01:33:31;;;;;;;16.35;8.57;;;;;8.20;101206.00;;;;5086282;28;20413;-67
2021/05/26 01:35:57;;;;;;;18.58;10.63;;;;;8.10;101185.00;;;;5086205;28;20459;-68
2021/05/26 01:38:25;;;;;;;18.65;10.60;;;;;8.20;101180.00;;;;5086183;28;20511;-70
2021/05/26 01:40:59;;;;;;;14.25;10.07;;;;;8.30;101192.00;;;;5086191;28;20127;-67
2021/05/26 01:43:27;;;;;;;19.30;10.85;;;;;8.30;101192.00;;;;5086424;28;20346;-70
2021/05/26 01:45:54;;;;;;;14.55;8.88;;;;;8.30;101195.00;;;;5067654;28;20028;-69
2021/05/26 01:48:21;;;;;;;16.20;8.82;;;;;8.20;101201.00;;;;5085724;28;20028;-69
2021/05/26 01:50:47;;;;;;;21.00;8.95;;;;;8.10;101194.00;;;;5085943;28;20028;-69
2021/05/26 01:53:14;;;;;;;17.38;9.45;;;;;8.00;101206.00;;;;5085720;28;20107;-70
2021/05/26 01:55:41;;;;;;;14.35;9.18;;;;;8.00;101205.00;;;;5085695;28;20055;-69
2021/05/26 01:58:08;;;;;;;24.33;9.90;;;;;8.00;101200.00;;;;5085811;28;20071;-67
2021/05/26 02:00:39;;;;;;;12.35;9.68;;;;;8.00;101204.00;;;;5086331;28;20024;-66
2021/05/26 02:03:05;;;;;;;15.23;9.45;;;;;8.00;101198.00;;;;5086942;28;20020;-68
2021/05/26 02:05:32;;;;;;;22.85;11.32;;;;;8.00;101206.00;;;;5086130;28;20071;-69
2021/05/26 02:08:00;;;;;;;15.38;9.38;;;;;8.00;101214.00;;;;5086009;28;20503;-69
2021/05/26 02:13:12;;;;;;;23.73;11.27;;;;;8.20;101204.00;;;;5085614;28;20406;-69
2021/05/26 02:15:38;;;;;;;13.68;10.60;;;;;8.20;101211.00;;;;5087358;28;20024;-68
2021/05/26 02:18:05;;;;;;;12.98;10.50;;;;;8.10;101207.00;;;;5089767;28;20028;-67
2021/05/26 02:20:32;;;;;;;17.35;11.98;;;;;8.10;101216.00;;;;5089541;28;20024;-67
2021/05/26 02:22:58;;;;;;;18.08;10.63;;;;;8.00;101199.00;;;;5089732;28;20550;-69
2021/05/26 02:25:25;;;;;;;13.57;10.02;;;;;8.00;101206.00;;;;5089217;28;20024;-70
2021/05/26 02:27:51;;;;;;;16.58;10.75;;;;;8.00;101196.00;;;;5089834;28;20031;-69
2021/05/26 02:30:18;;;;;;;12.60;10.30;;;;;7.90;101215.00;;;;5090270;28;20107;-68
2021/05/26 02:32:45;;;;;;;14.35;10.15;;;;;7.80;101215.00;;;;5089199;28;20099;-70
2021/05/26 02:35:12;;;;;;;11.57;9.43;;;;;7.70;101205.00;;;;5089104;28;20034;-66
2021/05/26 02:37:39;;;;;;;19.52;10.10;;;;;7.70;101205.00;;;;5089487;28;20035;-68
2021/05/26 02:40:07;;;;;;;14.82;10.20;;;;;7.60;101215.00;;;;5089651;28;20363;-69
2021/05/26 02:42:34;;;;;;;14.05;9.57;;;;;7.60;101204.00;;;;5071195;28;20035;-66
2021/05/26 02:45:00;;;;;;;17.60;11.85;;;;;7.60;101201.00;;;;5089585;28;20047;-66
2021/05/26 02:47:27;;;;;;;19.48;10.45;;;;;7.60;101215.00;;;;5089097;28;20051;-69
2021/05/26 02:49:53;;;;;;;11.60;10.05;;;;;7.60;101221.00;;;;5071023;28;20099;-69
2021/05/26 02:52:20;;;;;;;19.00;11.93;;;;;7.60;101211.00;;;;5088881;28;20433;-69
2021/05/26 02:54:46;;;;;;;20.75;11.05;;;;;7.60;101199.00;;;;5089268;28;20117;-68
2021/05/26 02:57:13;;;;;;;18.15;11.18;;;;;7.60;101203.00;;;;5089505;28;20111;-69
2021/05/26 02:59:39;;;;;;;20.52;11.07;;;;;7.70;101208.00;;;;5089795;28;20058;-69
2021/05/26 03:02:06;;;;;;;17.65;10.02;;;;;7.70;101203.00;;;;5089139;28;20397;-65
2021/05/26 03:04:32;;;;;;;13.15;10.10;;;;;7.70;101203.00;;;;5088973;28;20027;-67
2021/05/26 03:06:59;;;;;;;14.65;10.27;;;;;7.60;101218.00;;;;5070692;28;20024;-70
2021/05/26 03:09:25;;;;;;;17.15;11.27;;;;;7.50;101200.00;;;;5088710;28;20020;-69
2021/05/26 03:11:52;;;;;;;19.10;10.65;;;;;7.50;101184.00;;;;5088674;28;20024;-68
2021/05/26 03:14:18;;;;;;;17.35;11.10;;;;;7.50;101191.00;;;;5088699;28;20028;-70
2021/05/26 03:16:45;;;;;;;18.38;11.38;;;;;7.40;101196.00;;;;5088830;28;20027;-70
2021/05/26 03:19:11;;;;;;;14.40;10.93;;;;;7.40;101172.00;;;;5088342;28;20025;-67
2021/05/26 03:21:39;;;;;;;16.65;10.98;;;;;7.40;101191.00;;;;5088001;28;20039;-65
2021/05/26 03:24:07;;;;;;;13.43;10.40;;;;;7.40;101186.00;;;;5089282;28;20079;-69
2021/05/26 03:26:34;;;;;;;16.80;11.25;;;;;7.40;101188.00;;;;5088812;28;20028;-66
2021/05/26 03:29:01;;;;;;;15.30;10.95;;;;;7.30;101191.00;;;;5088753;28;20028;-68
2021/05/26 03:31:27;;;;;;;19.02;11.73;;;;;7.30;101184.00;;;;5070690;28;20028;-69
2021/05/26 03:33:54;;;;;;;16.58;12.23;;;;;7.30;101179.00;;;;5088137;28;20020;-68
2021/05/26 03:36:20;;;;;;;17.80;11.43;;;;;7.40;101184.00;;;;5088002;28;20035;-70
2021/05/26 03:38:47;;;;;;;21.92;12.15;;;;;7.30;101178.00;;;;5088362;28;20748;-70
2021/05/26 03:41:13;;;;;;;18.30;11.80;;;;;7.20;101177.00;;;;5088527;28;20085;-67
2021/05/26 03:43:40;;;;;;;17.60;12.18;;;;;7.20;101181.00;;;;5088269;28;20027;-69
2021/05/26 03:46:06;;;;;;;25.50;12.20;;;;;7.10;101180.00;;;;5088197;28;20027;-71
2021/05/26 03:48:33;;;;;;;19.77;12.32;;;;;7.10;101184.00;;;;5087985;28;20046;-70
2021/05/26 03:50:59;;;;;;;16.85;10.77;;;;;7.00;101182.00;;;;5088313;28;20020;-67
2021/05/26 03:53:26;;;;;;;16.58;12.00;;;;;7.00;101187.00;;;;5088194;28;20052;-70
2021/05/26 03:55:52;;;;;;;15.63;12.27;;;;;7.00;101181.00;;;;5088055;28;20032;-69
2021/05/26 03:58:20;;;;;;;21.77;12.80;;;;;7.00;101169.00;;;;5087837;28;20040;-67
2021/05/26 04:00:47;;;;;;;21.25;12.20;;;;;6.80;101179.00;;;;5087852;28;20074;-66
2021/05/26 04:03:14;;;;;;;18.05;11.95;;;;;6.70;101175.00;;;;5087437;28;20028;-70
2021/05/26 04:05:41;;;;;;;18.08;14.20;;;;;6.80;101180.00;;;;5087998;28;20554;-68
2021/05/26 04:08:08;;;;;;;18.40;12.57;;;;;6.80;101168.00;;;;5088028;28;20032;-67
2021/05/26 04:10:34;;;;;;;15.48;11.70;;;;;6.80;101163.00;;;;5087381;28;20409;-70
2021/05/26 04:13:01;;;;;;;24.33;13.52;;;;;6.90;101160.00;;;;5087500;28;20375;-69
2021/05/26 04:15:27;;;;;;;19.85;12.95;;;;;6.90;101168.00;;;;5087307;28;20038;-69
2021/05/26 04:17:54;;;;;;;20.27;13.30;;;;;6.90;101172.00;;;;5087834;28;20039;-67
2021/05/26 04:20:20;;;;;;;24.77;14.88;;;;;6.90;101163.00;;;;5087882;28;20099;-70
2021/05/26 04:22:47;;;;;;;22.60;14.55;;;;;6.90;101163.00;;;;5087634;28;20012;-70
2021/05/26 04:25:13;;;;;;;23.17;14.27;;;;;6.90;101151.00;;;;5087407;28;20028;-68
2021/05/26 04:27:40;;;;;;;19.42;13.90;;;;;6.90;101169.00;;;;5087373;28;20058;-69
2021/05/26 04:30:07;;;;;;;18.58;13.55;;;;;7.00;101164.00;;;;5086879;28;20020;-69
2021/05/26 04:32:33;;;;;;;24.92;14.43;;;;;7.00;101178.00;;;;5087404;28;20039;-68
2021/05/26 04:35:00;;;;;;;28.45;15.20;;;;;7.00;101171.00;;;;5087118;28;20024;-68
2021/05/26 04:37:26;;;;;;;19.45;12.57;;;;;7.00;101165.00;;;;5087027;28;20114;-70
2021/05/26 04:39:53;;;;;;;16.33;11.95;;;;;6.90;101173.00;;;;5086811;28;20019;-67
2021/05/26 04:42:20;;;;;;;16.80;12.77;;;;;6.80;101168.00;;;;5087379;28;20027;-70
2021/05/26 04:44:46;;;;;;;20.85;13.45;;;;;6.80;101177.00;;;;5087124;28;20024;-66
2021/05/26 04:47:13;;;;;;;19.15;12.90;;;;;6.70;101164.00;;;;5087141;28;20038;-67
2021/05/26 04:49:40;;;;;;;18.60;13.32;;;;;6.80;101163.00;;;;5086421;28;20395;-67
2021/05/26 04:52:06;;;;;;;20.83;12.73;;;;;6.80;101150.00;;;;5087230;28;20581;-69
2021/05/26 04:54:33;;;;;;;18.65;13.90;;;;;6.80;101156.00;;;;5086350;28;20431;-71
2021/05/26 04:57:00;;;;;;;20.17;13.05;;;;;6.80;101142.00;;;;5087081;28;20058;-64
2021/05/26 04:59:26;;;;;;;19.17;13.60;;;;;6.70;101153.00;;;;5086766;28;20028;-68
2021/05/26 05:01:53;;;;;;;19.48;13.13;;;;;6.80;101144.00;;;;5086837;28;20026;-68
2021/05/26 05:04:20;;;;;;;23.65;13.90;;;;;6.80;101140.00;;;;5087202;28;20032;-69
2021/05/26 05:06:47;;;;;;;22.63;12.68;;;;;6.80;101144.00;;;;5086930;28;20047;-70
2021/05/26 05:09:13;;;;;;;26.52;14.70;;;;;6.80;101154.00;;;;5086804;28;20020;-68
2021/05/26 05:11:40;;;;;;;17.60;13.38;;;;;6.70;101129.00;;;;5086279;28;20018;-70
2021/05/26 05:14:06;;;;;;;18.77;13.27;;;;;6.60;101135.00;;;;5086403;28;20024;-68
2021/05/26 05:16:33;;;;;;;18.20;12.75;;;;;6.50;101138.00;;;;5086750;28;20040;-69
2021/05/26 05:19:00;;;;;;;22.20;13.63;;;;;6.60;101127.00;;;;5086551;28;20035;-69
2021/05/26 05:21:26;;;;;;;33.13;13.80;;;;;6.60;101128.00;;;;5086186;28;20051;-71
2021/05/26 05:23:53;;;;;;;17.65;13.57;;;;;6.50;101122.00;;;;5086154;28;20378;-67
2021/05/26 05:26:19;;;;;;;19.30;12.45;;;;;6.40;101121.00;;;;5085739;28;20027;-69
2021/05/26 05:28:46;;;;;;;19.83;12.98;;;;;6.30;101116.00;;;;5085908;28;20367;-69
2021/05/26 05:31:12;;;;;;;18.52;12.48;;;;;6.30;101114.00;;;;5086551;28;20024;-70
2021/05/26 05:33:39;;;;;;;17.58;13.07;;;;;6.30;101111.00;;;;5086543;28;20020;-67
2021/05/26 05:36:05;;;;;;;21.67;13.15;;;;;6.20;101110.00;;;;5086603;28;20028;-69
2021/05/26 05:38:32;;;;;;;19.52;12.80;;;;;6.30;101122.00;;;;5086182;28;20016;-71
2021/05/26 05:40:58;;;;;;;20.48;13.48;;;;;6.30;101113.00;;;;5085984;28;20020;-68
2021/05/26 05:43:25;;;;;;;18.75;13.55;;;;;6.30;101119.00;;;;5086314;28;20016;-68
2021/05/26 05:45:51;;;;;;;15.73;12.98;;;;;6.30;101094.00;;;;5086332;28;20020;-69
2021/05/26 05:48:18;;;;;;;16.88;12.20;;;;;6.30;101109.00;;;;5086555;28;20500;-71
2021/05/26 05:50:44;;;;;;;15.13;12.20;;;;;6.20;101092.00;;;;5085750;28;20077;-66
2021/05/26 05:53:12;;;;;;;18.77;12.85;;;;;6.20;101101.00;;;;5085901;28;20423;-68
2021/05/26 05:55:39;;;;;;;16.02;12.77;;;;;6.10;101094.00;;;;5086300;28;20024;-70
2021/05/26 05:58:06;;;;;;;20.88;12.57;;;;;6.10;101109.00;;;;5086369;28;20073;-70
2021/05/26 06:00:33;;;;;;;19.30;12.60;;;;;6.10;101093.00;;;;5086379;28;20032;-69
2021/05/26 06:02:59;;;;;;;18.60;12.65;;;;;6.10;101089.00;;;;5086357;28;20046;-70
2021/05/26 06:05:26;;;;;;;14.57;11.85;;;;;6.10;101099.00;;;;5086002;28;20509;-70
2021/05/26 06:07:52;;;;;;;14.65;11.75;;;;;6.00;101083.00;;;;5086289;28;20029;-67
2021/05/26 06:10:19;;;;;;;21.88;13.30;;;;;6.00;101082.00;;;;5085626;28;20028;-71
2021/05/26 06:12:47;;;;;;;20.45;13.90;;;;;6.10;101084.00;;;;5086070;28;20097;-67
2021/05/26 06:15:14;;;;;;;22.98;15.40;;;;;6.10;101090.00;;;;5086067;28;20035;-69
2021/05/26 06:17:41;;;;;;;15.98;10.60;;;;;6.10;101068.00;;;;5085951;28;20056;-70
2021/05/26 06:20:08;;;;;;;11.73;8.85;;;;;6.00;101073.00;;;;5085686;28;20398;-69
2021/05/26 06:22:35;;;;;;;16.48;12.13;;;;;6.00;101077.00;;;;5085685;28;20063;-68
2021/05/26 06:25:01;;;;;;;19.42;13.75;;;;;6.10;101067.00;;;;5085545;28;20020;-67
2021/05/26 06:27:28;;;;;;;22.75;15.35;;;;;6.20;101066.00;;;;5085567;28;20021;-71
2021/05/26 06:29:54;;;;;;;20.33;15.57;;;;;6.20;101061.00;;;;5086166;28;20531;-69
2021/05/26 06:32:21;;;;;;;18.27;13.77;;;;;6.20;101075.00;;;;5086189;28;20028;-69
2021/05/26 06:34:50;;;;;;;18.30;13.52;;;;;6.30;101070.00;;;;5085591;28;20439;-67
2021/05/26 06:37:17;;;;;;;16.40;12.13;;;;;6.30;101075.00;;;;5085492;28;20360;-67
2021/05/26 06:39:44;;;;;;;19.25;12.18;;;;;6.30;101055.00;;;;5085480;28;20016;-68
2021/05/26 06:42:11;;;;;;;14.57;12.05;;;;;6.20;101048.00;;;;5067444;28;20031;-70
2021/05/26 06:44:39;;;;;;;21.65;12.48;;;;;6.20;101069.00;;;;5085792;28;20020;-71
2021/05/26 06:47:05;;;;;;;17.73;12.40;;;;;6.10;101059.00;;;;5085455;28;20120;-70
2021/05/26 06:49:32;;;;;;;16.83;12.70;;;;;6.00;101071.00;;;;5085319;28;20023;-70
2021/05/26 06:51:59;;;;;;;15.50;12.45;;;;;6.10;101057.00;;;;5084881;28;20035;-68
2021/05/26 06:54:25;;;;;;;12.85;11.45;;;;;6.10;101077.00;;;;5085438;28;20080;-71
2021/05/26 06:56:52;;;;;;;19.00;11.60;;;;;6.10;101049.00;;;;5085806;28;20024;-71
2021/05/26 06:59:19;;;;;;;14.85;12.45;;;;;6.00;101058.00;;;;5067847;28;20031;-69
2021/05/26 07:01:45;;;;;;;17.33;12.55;;;;;6.00;101055.00;;;;5086349;28;20497;-71
2021/05/26 07:04:12;;;;;;;16.02;12.15;;;;;6.00;101041.00;;;;5089075;28;20024;-68
2021/05/26 07:06:38;;;;;;;17.50;10.90;;;;;6.00;101054.00;;;;5088648;28;20020;-70
2021/05/26 07:09:05;;;;;;;19.98;12.38;;;;;6.00;101036.00;;;;5088714;28;20028;-67
2021/05/26 07:11:32;;;;;;;16.08;11.70;;;;;5.90;101037.00;;;;5088806;28;20016;-65
2021/05/26 07:13:59;;;;;;;15.82;11.40;;;;;5.90;101042.00;;;;5088998;28;20031;-69
2021/05/26 07:16:25;;;;;;;16.92;11.27;;;;;5.90;101045.00;;;;5088981;28;20501;-68
2021/05/26 07:18:52;;;;;;;19.60;13.35;;;;;5.80;101050.00;;;;5088744;28;20016;-70
2021/05/26 07:21:18;;;;;;;18.00;12.75;;;;;5.70;101028.00;;;;5089003;28;20032;-68
2021/05/26 07:23:45;;;;;;;15.13;11.55;;;;;5.70;101038.00;;;;5089171;28;20471;-68
2021/05/26 07:26:12;;;;;;;15.63;12.45;;;;;5.70;101027.00;;;;5088441;28;20104;-69
2021/05/26 07:28:40;;;;;;;20.15;12.13;;;;;5.60;101047.00;;;;5089109;28;20470;-70
2021/05/26 07:31:07;;;;;;;15.32;11.43;;;;;5.80;101021.00;;;;5088441;28;20062;-70
2021/05/26 07:33:33;;;;;;;19.75;13.05;;;;;5.70;101043.00;;;;5088221;28;20044;-68
2021/05/26 07:36:00;;;;;;;16.92;12.43;;;;;5.70;101042.00;;;;5088341;28;20039;-69
2021/05/26 07:38:27;;;;;;;21.67;12.00;;;;;5.60;101025.00;;;;5088148;28;20024;-70
2021/05/26 07:40:54;;;;;;;21.92;12.60;;;;;5.50;101037.00;;;;5088546;28;20368;-69
2021/05/26 07:43:21;;;;;;;14.20;11.55;;;;;5.50;101013.00;;;;5088567;28;20024;-68
2021/05/26 07:45:49;;;;;;;14.48;11.63;;;;;5.60;101026.00;;;;5088394;28;20023;-68
2021/05/26 07:48:16;;;;;;;21.52;11.73;;;;;5.70;101018.00;;;;5088296;28;20028;-67
2021/05/26 07:50:44;;;;;;;19.58;12.48;;;;;5.70;101015.00;;;;5070653;28;20573;-68
2021/05/26 07:53:10;;;;;;;23.52;11.88;;;;;5.60;101027.00;;;;5088305;28;20689;-69
2021/05/26 07:55:37;;;;;;;17.83;11.70;;;;;5.60;101006.00;;;;5088257;28;20040;-68
2021/05/26 07:58:04;;;;;;;14.93;12.20;;;;;5.50;101017.00;;;;5087907;28;20102;-70
2021/05/26 08:00:30;;;;;;;12.85;10.70;;;;;5.60;101012.00;;;;5069680;28;20074;-68
2021/05/26 08:02:57;;;;;;;15.07;11.98;;;;;5.60;101021.00;;;;5087904;28;20020;-70
2021/05/26 08:05:24;;;;;;;17.33;11.80;;;;;5.60;101014.00;;;;5088059;28;20024;-69
2021/05/26 08:07:51;;;;;;;17.90;12.75;;;;;5.50;101021.00;;;;5087839;28;20032;-69
2021/05/26 08:10:18;;;;;;;16.55;11.63;;;;;5.50;101019.00;;;;5088006;28;20490;-69
2021/05/26 08:12:44;;;;;;;17.10;12.05;;;;;5.70;101024.00;;;;5088052;28;20462;-70
2021/05/26 08:15:13;;;;;;;14.30;11.82;;;;;5.70;101016.00;;;;5087488;28;20028;-70
2021/05/26 08:17:40;;;;;;;17.70;11.23;;;;;5.70;101037.00;;;;5088092;28;20242;-67
2021/05/26 08:20:08;;;;;;;13.07;11.48;;;;;5.70;101015.00;;;;5087815;28;20475;-71
2021/05/26 08:22:35;;;;;;;15.88;10.90;;;;;5.70;101025.00;;;;5087760;28;20024;-69
2021/05/26 08:25:01;;;;;;;16.08;10.90;;;;;5.60;101029.00;;;;5087500;28;20519;-70
2021/05/26 08:27:28;;;;;;;20.88;10.88;;;;;5.60;101015.00;;;;5087435;28;20102;-67
2021/05/26 08:29:56;;;;;;;11.85;10.60;;;;;5.60;101037.00;;;;5086978;28;20024;-67
2021/05/26 08:32:23;;;;;;;14.77;10.40;;;;;5.50;101023.00;;;;5087402;28;20445;-69
2021/05/26 08:34:49;;;;;;;16.38;11.40;;;;;5.50;101035.00;;;;5086978;28;20480;-66
2021/05/26 08:37:19;;;;;;;15.13;11.05;;;;;5.50;101025.00;;;;5087455;28;20039;-69
2021/05/26 08:39:45;;;;;;;17.05;11.40;;;;;5.50;101022.00;;;;5087610;28;20016;-67
2021/05/26 08:42:12;;;;;;;11.40;9.18;;;;;5.50;101026.00;;;;5087664;28;20016;-69
2021/05/26 08:44:38;;;;;;;13.85;8.15;;;;;5.40;101046.00;;;;5087076;28;20024;-69
2021/05/26 08:47:06;;;;;;;15.45;11.05;;;;;5.40;101041.00;;;;5087510;28;20031;-68
2021/05/26 08:49:32;;;;;;;16.63;10.70;;;;;5.30;101045.00;;;;5087458;28;20115;-70
2021/05/26 08:52:02;;;;;;;17.23;11.57;;;;;5.30;101020.00;;;;5087143;28;20077;-69
2021/05/26 08:54:29;;;;;;;14.05;10.20;;;;;5.30;101039.00;;;;5086695;28;20133;-70
2021/05/26 08:56:55;;;;;;;16.15;9.20;;;;;5.30;101030.00;;;;5086241;28;20020;-68
2021/05/26 08:59:23;;;;;;;17.73;10.52;;;;;5.40;101044.00;;;;5068627;28;20027;-67
2021/05/26 09:01:53;;;;;;;13.75;10.02;;;;;5.30;101038.00;;;;5087172;28;20113;-68
2021/05/26 09:04:34;;;;;;;20.33;11.63;;;;;5.30;101033.00;;;;5086923;28;20035;-69
2021/05/26 09:07:16;;;;;;;16.53;10.40;;;;;5.30;101036.00;;;;5087132;28;20513;-68
2021/05/26 09:09:55;;;;;;;;;;;;;5.20;101041.00;;;;5087432;28;20016;-68
2021/05/26 09:12:41;;;;;;;18.52;9.52;;;;;5.20;101040.00;;;;5086607;28;19912;-69
2021/05/26 09:15:13;;;;;;;14.65;9.68;;;;;5.30;101031.00;;;;5086480;28;20038;-71
2021/05/26 09:17:40;;;;;;;14.15;10.07;;;;;5.30;101057.00;;;;5086031;28;20069;-69
2021/05/26 09:20:13;;;;;;;16.83;11.10;;;;;5.30;101054.00;;;;5086113;28;20036;-69
2021/05/26 09:22:56;;;;;;;16.15;12.00;;;;;5.20;101060.00;;;;5086811;28;20020;-69
2021/05/26 09:25:23;;;;;;;16.25;11.93;;;;;5.20;101061.00;;;;5085834;28;20028;-68
2021/05/26 09:27:49;;;;;;;14.63;9.68;;;;;5.10;101058.00;;;;5087119;28;20020;-68
2021/05/26 09:30:30;;;;;;;16.08;11.13;;;;;5.10;101056.00;;;;5085845;28;20535;-68
2021/05/26 09:32:57;;;;;;;18.90;11.43;;;;;5.10;101064.00;;;;5086279;28;21132;-68
2021/05/26 09:35:23;;;;;;;16.25;12.10;;;;;5.10;101060.00;;;;5086546;28;20487;-70
2021/05/26 09:37:57;;;;;;;20.33;12.00;;;;;5.10;101072.00;;;;5086178;28;20390;-68
2021/05/26 09:40:23;;;;;;;21.00;12.82;;;;;5.10;101073.00;;;;5085928;28;20032;-68
2021/05/26 09:42:50;;;;;;;18.30;11.45;;;;;5.00;101062.00;;;;5085715;28;20026;-67
2021/05/26 09:45:26;;;;;;;22.25;11.88;;;;;5.00;101081.00;;;;5086615;28;20033;-68
2021/05/26 09:47:58;;;;;;;17.65;11.27;;;;;5.00;101085.00;;;;5085991;28;20035;-68
2021/05/26 09:50:33;;;;;;;18.25;12.50;;;;;5.00;101087.00;;;;5085705;28;20016;-69
2021/05/26 09:53:15;;;;;;;19.42;11.40;;;;;4.90;101083.00;;;;5085731;28;20504;-66
2021/05/26 09:55:44;;;;;;;15.95;11.52;;;;;4.90;101078.00;;;;5086380;28;20035;-65
2021/05/26 09:58:12;;;;;;;24.75;13.48;;;;;4.90;101088.00;;;;5086079;28;20067;-66
2021/05/26 10:00:42;;;;;;;17.05;12.40;;;;;4.90;101091.00;;;;5086538;28;20028;-71
2021/05/26 10:03:09;;;;;;;17.85;12.23;;;;;4.90;101085.00;;;;5086088;28;20032;-67
2021/05/26 10:05:35;;;;;;;24.70;13.98;;;;;4.90;101101.00;;;;5085448;28;20020;-68
2021/05/26 10:08:07;;;;;;;21.98;12.80;;;;;4.90;101112.00;;;;5067991;28;20028;-70
2021/05/26 10:10:34;;;;;;;31.27;19.17;;;;;4.80;101109.00;;;;5085855;28;20437;-68
2021/05/26 10:13:03;;;;;;;24.60;16.25;;;;;4.90;101089.00;;;;5067718;28;20082;-68
2021/05/26 10:15:32;;;;;;;32.13;15.95;;;;;5.00;101093.00;;;;5085532;28;20390;-68
2021/05/26 10:18:01;;;;;;;39.30;23.40;;;;;5.00;101110.00;;;;5085998;28;20027;-69
2021/05/26 10:20:47;;;;;;;28.50;17.92;;;;;5.00;101120.00;;;;5085935;28;20062;-66
2021/05/26 10:23:19;;;;;;;28.42;16.10;;;;;5.00;101124.00;;;;5085818;28;20031;-69
2021/05/26 10:25:47;;;;;;;24.90;16.98;;;;;4.90;101111.00;;;;5085997;28;20133;-71
2021/05/26 10:28:31;;;;;;;28.98;16.60;;;;;5.10;101114.00;;;;5085807;28;20016;-73
2021/05/26 10:30:59;;;;;;;20.40;16.13;;;;;5.20;101135.00;;;;5085576;28;20028;-71
2021/05/26 10:33:53;;;;;;;23.05;16.27;;;;;5.30;101131.00;;;;5085425;28;20382;-69
2021/05/26 10:36:21;;;;;;;25.90;18.63;;;;;5.30;101123.00;;;;5084336;28;20040;-70
2021/05/26 10:39:00;;;;;;;24.83;16.63;;;;;5.40;101144.00;;;;5089485;28;20063;-69
2021/05/26 10:41:52;;;;;;;24.90;15.25;;;;;5.80;101116.00;;;;5089345;28;20073;-71
2021/05/26 10:44:19;;;;;;;23.00;14.43;;;;;6.90;101078.00;;;;5089390;28;20060;-66
2021/05/26 10:46:48;;;;;;;31.33;14.52;;;;;8.00;101002.00;;;;5089327;28;20563;-67
2021/05/26 10:49:16;;;;;;;17.25;10.07;;;;;9.00;101015.00;;;;5089532;28;20043;-70
2021/05/26 10:51:56;;;;;;;25.98;12.02;;;;;10.40;100989.00;;;;5089225;28;20024;-65
2021/05/26 10:54:41;;;;;;;17.50;10.57;;;;;9.40;101124.00;;;;5089404;28;20044;-69
2021/05/26 10:57:09;;;;;;;18.60;9.35;;;;;9.00;101100.00;;;;5089445;28;20467;-68
2021/05/26 10:59:36;;;;;;;29.10;11.25;;;;;9.20;101072.00;;;;5071024;28;20438;-67
2021/05/26 11:02:03;;;;;;;22.67;9.93;;;;;9.40;101107.00;;;;5088280;28;20043;-69
2021/05/26 11:04:31;;;;;;;23.48;11.10;;;;;9.10;101129.00;;;;5089199;28;20509;-69
2021/05/26 11:07:17;;;;;;;13.88;8.65;;;;;9.50;101134.00;;;;5089334;28;20148;-68
2021/05/26 11:10:03;;;;;;;13.13;8.23;;;;;9.70;101100.00;;;;5088944;28;20024;-68
2021/05/26 11:12:55;;;;;;;11.63;6.95;;;;;11.50;100984.00;;;;5088533;28;20519;-71
2021/05/26 11:15:39;;;;;;;;;;;;;13.70;101054.00;;;;5089504;28;20812;-71
2021/05/26 11:20:51;;;;;;;14.55;6.35;;;;;14.60;100953.00;;;;5088494;28;20037;-68
2021/05/26 11:23:18;;;;;;;19.10;5.80;;;;;14.90;100949.00;;;;5089351;28;20027;-70
2021/05/26 11:25:55;;;;;;;15.27;5.85;;;;;15.50;100972.00;;;;5088811;28;20027;-70
2021/05/26 11:28:31;;;;;;;13.68;5.75;;;;;15.50;100933.00;;;;5088503;28;20483;-70
2021/05/26 11:31:08;;;;;;;17.60;10.32;;;;;16.30;100928.00;;;;5088469;28;20501;-69
2021/05/26 11:33:35;;;;;;;19.92;7.75;;;;;16.70;100928.00;;;;5089037;28;20024;-71
2021/05/26 11:36:04;;;;;;;18.15;6.45;;;;;17.00;100910.00;;;;5088258;28;20024;-69
2021/05/26 11:38:32;;;;;;;18.13;6.40;;;;;17.10;100925.00;;;;5087988;28;20954;-69
2021/05/26 11:41:00;;;;;;;12.05;5.68;;;;;17.50;100975.00;;;;5088120;28;20039;-69
2021/05/26 11:43:32;;;;;;;28.35;6.78;;;;;18.10;100979.00;;;;5088153;28;20055;-69
2021/05/26 11:46:07;;;;;;;7.93;6.70;;;;;18.10;100992.00;;;;5088868;28;20646;-71
2021/05/26 11:48:33;;;;;;;17.20;5.65;;;;;17.60;101003.00;;;;5087661;28;20036;-72
2021/05/26 11:51:00;;;;;;;7.68;5.75;;;;;17.80;101005.00;;;;5088195;28;20035;-71
2021/05/26 11:53:27;;;;;;;9.23;5.28;;;;;17.60;101017.00;;;;5088110;28;20024;-67
2021/05/26 11:56:03;;;;;;;26.50;7.03;;;;;18.10;100989.00;;;;5087975;28;20093;-69
2021/05/26 11:58:41;;;;;;;11.82;6.28;;;;;18.60;100988.00;;;;5087856;28;20032;-69
2021/05/26 12:01:16;;;;;;;17.90;5.68;;;;;18.90;100986.00;;;;5087965;28;20387;-72
2021/05/26 12:03:43;;;;;;;6.57;5.28;;;;;18.60;101012.00;;;;5087516;28;20028;-67
2021/05/26 12:06:10;;;;;;;13.35;4.95;;;;;18.60;101009.00;;;;5087340;28;20467;-71
2021/05/26 12:08:43;;;;;;;12.48;5.55;;;;;19.60;101028.00;;;;5087155;28;20107;-73
2021/05/26 12:11:14;;;;;;;7.57;5.03;;;;;19.50;101036.00;;;;5087615;28;20491;-72